Time;durP1;ratioP1;P1;durP2;ratioP2;P2;SDS_P1;SDS_P2;PMS_P1;PMS_P2;Temp;Humidity;BMP_temperature;BMP_pressure;BME280_temperature;BME280_humidity;BME280_pressure;Samples;Min_cycle;Max_cycle;Signal;HPM_P1;HPM_P2
2024/02/27 00:04:01;;;;;;;2.73;1.00;;;;;;;17.30;53.63;101351.69;10451066;28;20278;-59
2024/02/27 00:09:02;;;;;;;1.55;1.10;;;;;;;17.30;53.63;101359.72;10437808;28;20312;-59
2024/02/27 00:14:03;;;;;;;1.65;1.00;;;;;;;17.32;53.35;101358.38;10450177;28;20721;-60
2024/02/27 00:19:03;;;;;;;1.63;0.93;;;;;;;17.30;53.05;101357.06;10450277;28;20032;-59
2024/02/27 00:24:04;;;;;;;1.90;1.00;;;;;;;17.32;52.91;101353.03;10450746;28;20762;-59
2024/02/27 00:29:04;;;;;;;1.55;0.80;;;;;;;17.29;53.29;101364.28;10449714;28;20060;-60
2024/02/27 00:34:04;;;;;;;1.47;1.00;;;;;;;17.28;53.59;101372.56;10450255;28;20032;-60
2024/02/27 00:39:04;;;;;;;1.40;0.80;;;;;;;17.32;54.04;101371.78;10449941;28;20291;-59
2024/02/27 00:44:07;;;;;;;1.57;0.70;;;;;;;17.30;53.62;101381.97;10450303;28;20074;-59
2024/02/27 00:49:07;;;;;;;1.98;1.00;;;;;;;17.28;53.00;101378.72;10449511;28;20278;-60
2024/02/27 00:54:08;;;;;;;2.07;1.30;;;;;;;17.27;53.14;101385.16;10448515;28;20386;-59
2024/02/27 00:59:08;;;;;;;2.17;0.95;;;;;;;17.29;52.72;101391.09;10449324;28;20287;-59
2024/02/27 01:04:08;;;;;;;1.50;1.03;;;;;;;17.27;52.51;101377.13;10449884;28;20025;-58
2024/02/27 01:09:09;;;;;;;1.57;0.73;;;;;;;17.29;53.44;101377.69;10451584;28;20278;-60
2024/02/27 01:14:09;;;;;;;1.27;0.80;;;;;;;17.30;52.74;101383.84;10456468;28;20295;-59
2024/02/27 01:19:10;;;;;;;1.63;1.03;;;;;;;17.28;53.73;101386.78;10457124;28;20029;-59
2024/02/27 01:24:10;;;;;;;1.40;0.80;;;;;;;17.29;52.79;101385.72;10457363;28;20366;-59
2024/02/27 01:29:11;;;;;;;2.55;0.80;;;;;;;17.29;53.64;101384.94;10456662;28;20024;-60
2024/02/27 01:34:14;;;;;;;1.83;1.10;;;;;;;17.30;52.58;101389.22;10457160;28;20047;-59
2024/02/27 01:39:14;;;;;;;1.95;1.10;;;;;;;17.30;52.51;101395.38;10456367;28;20025;-59
2024/02/27 01:44:15;;;;;;;2.30;1.20;;;;;;;17.33;53.43;101394.03;10455485;28;20025;-59
2024/02/27 01:49:15;;;;;;;1.50;0.80;;;;;;;17.30;52.88;101407.97;10456077;28;20761;-59
2024/02/27 01:54:19;;;;;;;1.48;0.90;;;;;;;17.29;52.62;101404.50;10455987;28;20278;-59
2024/02/27 01:59:21;;;;;;;1.45;0.80;;;;;;;17.33;53.38;101418.16;10454595;28;20032;-59
2024/02/27 02:04:22;;;;;;;2.42;1.13;;;;;;;17.30;53.55;101424.84;10441485;28;20039;-58
2024/02/27 02:09:22;;;;;;;1.23;0.80;;;;;;;17.29;52.89;101407.16;10455102;28;20013;-60
2024/02/27 02:14:23;;;;;;;1.20;0.70;;;;;;;17.29;53.86;101415.22;10455342;28;20606;-59
2024/02/27 02:19:23;;;;;;;2.00;1.13;;;;;;;17.31;52.20;101421.09;10453495;28;20032;-59
2024/02/27 02:24:26;;;;;;;1.80;0.90;;;;;;;17.29;53.22;101436.66;10455264;28;20024;-59
2024/02/27 02:29:28;;;;;;;1.58;1.10;;;;;;;17.30;53.48;101437.47;10453167;28;20271;-59
2024/02/27 02:34:29;;;;;;;2.17;1.13;;;;;;;17.30;52.89;101448.19;10454720;28;20025;-59
2024/02/27 02:39:29;;;;;;;1.63;0.90;;;;;;;17.30;53.34;101453.53;10454317;28;20461;-60
2024/02/27 02:44:30;;;;;;;2.50;1.10;;;;;;;17.30;52.29;101448.97;10452847;28;20283;-60
2024/02/27 02:49:30;;;;;;;1.42;0.75;;;;;;;17.29;53.32;101450.06;10453615;28;20357;-59
2024/02/27 02:54:31;;;;;;;2.17;0.93;;;;;;;17.30;53.06;101451.66;10452642;28;20112;-59
2024/02/27 02:59:31;;;;;;;2.27;0.77;;;;;;;17.30;53.43;101448.97;10453339;28;20025;-58
2024/02/27 03:04:31;;;;;;;1.45;0.80;;;;;;;17.28;53.60;101453.78;10453528;28;20283;-59
2024/02/27 03:09:32;;;;;;;1.10;0.70;;;;;;;17.29;53.27;101454.63;10452981;28;20024;-58
2024/02/27 03:14:32;;;;;;;0.82;0.60;;;;;;;17.31;52.29;101455.94;10451620;28;20962;-59
2024/02/27 03:19:32;;;;;;;1.20;0.82;;;;;;;17.37;51.50;101460.22;10452686;28;20449;-60
2024/02/27 03:24:33;;;;;;;1.40;0.73;;;;;;;17.40;52.05;101454.31;10452803;28;20468;-59
2024/02/27 03:29:33;;;;;;;1.43;0.70;;;;;;;17.42;52.01;101454.88;10452087;28;20271;-59
2024/02/27 03:34:34;;;;;;;2.08;0.73;;;;;;;17.42;52.63;101454.88;10452083;28;20735;-59
2024/02/27 03:39:34;;;;;;;2.15;0.90;;;;;;;17.41;51.39;101455.16;10450339;28;20036;-60
2024/02/27 03:44:35;;;;;;;1.87;1.07;;;;;;;17.42;52.45;101454.88;10450450;28;20031;-59
2024/02/27 03:49:35;;;;;;;1.40;0.93;;;;;;;17.40;52.53;101459.69;10451252;28;20276;-60
2024/02/27 03:54:35;;;;;;;1.57;0.90;;;;;;;17.41;52.27;101463.19;10433463;28;20284;-59
2024/02/27 03:59:36;;;;;;;1.95;0.80;;;;;;;17.38;52.81;101471.75;10450730;28;20288;-59
2024/02/27 04:04:36;;;;;;;1.67;0.90;;;;;;;17.38;52.33;101483.28;10448876;28;20488;-59
2024/02/27 04:09:36;;;;;;;1.23;0.60;;;;;;;17.39;52.20;101476.84;10448197;28;20282;-59
2024/02/27 04:14:36;;;;;;;2.13;1.10;;;;;;;17.43;52.07;101474.44;10449344;28;20792;-58
2024/02/27 04:19:37;;;;;;;1.03;0.90;;;;;;;17.43;51.70;101474.44;10450131;28;20299;-60
2024/02/27 04:24:37;;;;;;;1.77;0.87;;;;;;;17.46;52.23;101485.41;10450541;28;20817;-59
2024/02/27 04:29:40;;;;;;;2.47;0.95;;;;;;;17.44;52.33;101492.13;10449779;28;20278;-60
2024/02/27 04:34:41;;;;;;;1.83;1.00;;;;;;;17.45;51.19;101497.22;10448887;28;20033;-60
2024/02/27 04:39:45;;;;;;;1.75;1.10;;;;;;;17.39;52.34;101498.28;10449222;28;20059;-63
2024/02/27 04:44:45;;;;;;;1.33;0.90;;;;;;;17.48;52.46;101501.22;10448224;28;20025;-59
2024/02/27 04:49:45;;;;;;;1.50;0.90;;;;;;;17.51;52.40;101514.91;10445184;28;20013;-59
2024/02/27 04:54:46;;;;;;;1.47;0.77;;;;;;;17.51;52.40;101524.81;10447145;28;20279;-62
2024/02/27 04:59:47;;;;;;;4.88;1.00;;;;;;;17.53;52.16;101528.88;10446599;28;20305;-60
2024/02/27 05:04:47;;;;;;;1.38;0.98;;;;;;;17.51;52.38;101519.47;10447972;28;20037;-60
2024/02/27 05:09:47;;;;;;;1.90;0.97;;;;;;;17.42;53.33;101521.09;10447648;28;20092;-59
2024/02/27 05:14:48;;;;;;;2.20;1.00;;;;;;;17.42;51.99;101529.94;10449517;28;20275;-59
2024/02/27 05:19:48;;;;;;;1.80;0.90;;;;;;;17.39;52.36;101527.75;10448878;28;20029;-59
2024/02/27 05:24:49;;;;;;;2.60;1.07;;;;;;;17.40;52.71;101540.09;10449346;28;20640;-60
2024/02/27 05:29:49;;;;;;;1.80;1.10;;;;;;;17.37;52.91;101545.19;10449049;28;20271;-59
2024/02/27 05:34:49;;;;;;;1.37;0.90;;;;;;;17.37;53.17;101555.91;10449177;28;20897;-59
2024/02/27 05:39:50;;;;;;;2.13;1.53;;;;;;;17.38;52.41;101560.22;10447167;28;20298;-59
2024/02/27 05:44:50;;;;;;;1.77;1.07;;;;;;;17.35;52.22;101561.56;10445630;28;20271;-59
2024/02/27 05:49:50;;;;;;;1.77;0.93;;;;;;;17.35;53.28;101556.19;10447918;28;20282;-60
2024/02/27 05:54:50;;;;;;;1.43;0.80;;;;;;;17.34;53.56;101554.59;10451631;28;20289;-60
2024/02/27 05:59:51;;;;;;;1.60;1.17;;;;;;;17.37;52.46;101558.59;10454396;28;20318;-60
2024/02/27 06:04:51;;;;;;;2.53;1.33;;;;;;;17.34;52.66;101568.00;10455849;28;20317;-60
2024/02/27 06:09:51;;;;;;;2.30;1.33;;;;;;;17.34;52.36;101578.72;10454942;28;20344;-60
2024/02/27 06:14:52;;;;;;;6.13;1.23;;;;;;;17.33;53.08;101568.25;10454029;28;20336;-60
2024/02/27 06:19:59;;;;;;;5.43;1.23;;;;;;;17.40;52.70;101588.34;10454078;28;20025;-62
2024/02/27 06:24:59;;;;;;;8.15;1.48;;;;;;;17.32;54.08;101596.13;10453047;28;20723;-61
2024/02/27 06:30:00;;;;;;;14.73;2.67;;;;;;;17.44;53.46;101608.22;10453207;28;20021;-61
2024/02/27 06:35:00;;;;;;;11.27;1.90;;;;;;;17.42;54.07;101617.59;10454773;28;20276;-61
2024/02/27 06:40:02;;;;;;;11.00;2.28;;;;;;;17.47;53.17;101601.50;10452720;28;20287;-62
2024/02/27 06:45:03;;;;;;;10.75;2.30;;;;;;;17.47;53.45;101605.00;10453002;28;20090;-60
2024/02/27 06:50:04;;;;;;;10.52;1.98;;;;;;;17.34;53.51;101608.19;10453851;28;20025;-59
2024/02/27 06:55:05;;;;;;;8.35;1.95;;;;;;;17.33;53.64;101609.28;10453708;28;20036;-61
2024/02/27 07:00:07;;;;;;;31.02;5.57;;;;;;;17.31;53.75;101611.41;10451982;28;20021;-60
2024/02/27 07:05:07;;;;;;;26.92;3.33;;;;;;;17.20;53.89;101620.50;10451640;28;20025;-63
2024/02/27 07:10:09;;;;;;;13.82;3.22;;;;;;;17.16;53.04;101622.06;10450336;28;20037;-62
2024/02/27 07:15:11;;;;;;;21.33;5.18;;;;;;;17.30;53.29;101625.09;10452697;28;20029;-62
2024/02/27 07:20:12;;;;;;;13.15;3.90;;;;;;;17.30;52.98;101631.25;10451775;28;20040;-62
2024/02/27 07:25:12;;;;;;;14.15;2.75;;;;;;;17.31;52.98;101629.38;10452436;28;20368;-61
2024/02/27 07:30:12;;;;;;;9.82;2.45;;;;;;;17.31;53.75;101634.72;10452426;28;20025;-62
2024/02/27 07:35:13;;;;;;;13.38;2.67;;;;;;;17.24;52.63;101626.94;10451234;28;20025;-61
2024/02/27 07:40:14;;;;;;;13.13;3.53;;;;;;;17.26;52.16;101619.44;10450906;28;20108;-61
2024/02/27 07:45:16;;;;;;;12.55;2.58;;;;;;;17.23;52.79;101619.97;10450980;28;20057;-61
2024/02/27 07:50:17;;;;;;;10.82;2.85;;;;;;;17.25;53.62;101628.53;10446869;28;20025;-61
2024/02/27 07:55:17;;;;;;;9.07;2.50;;;;;;;17.20;52.33;101642.75;10449492;28;20071;-61
2024/02/27 08:00:18;;;;;;;12.17;2.90;;;;;;;17.27;53.76;101647.03;10440066;28;20029;-62
2024/02/27 08:05:20;;;;;;;6.43;2.58;;;;;;;17.25;52.53;101650.78;10449908;28;20275;-61
2024/02/27 08:10:20;;;;;;;9.05;2.30;;;;;;;17.22;52.96;101650.50;10450467;28;20043;-62
2024/02/27 08:15:21;;;;;;;8.63;2.53;;;;;;;17.23;53.54;101654.81;10432453;28;20040;-62
2024/02/27 08:20:21;;;;;;;8.18;2.60;;;;;;;17.25;52.14;101661.50;10449736;28;20290;-61
2024/02/27 08:25:21;;;;;;;6.63;1.73;;;;;;;17.18;52.26;101658.28;10450066;28;20027;-61
2024/02/27 08:30:22;;;;;;;6.85;1.83;;;;;;;17.17;52.77;101655.88;10449151;28;20286;-62
2024/02/27 08:35:22;;;;;;;6.60;2.80;;;;;;;17.15;52.85;101664.16;10448674;28;20029;-62
2024/02/27 08:40:22;;;;;;;5.53;1.70;;;;;;;17.09;54.11;101692.00;10448783;28;20287;-62
2024/02/27 08:45:23;;;;;;;5.57;1.70;;;;;;;17.03;53.46;101692.22;10448391;28;20029;-61
2024/02/27 08:50:23;;;;;;;5.95;1.65;;;;;;;17.05;53.89;101695.44;10449816;28;20283;-61
2024/02/27 08:55:25;;;;;;;6.73;2.03;;;;;;;17.00;54.09;101695.44;10447602;28;20179;-62
2024/02/27 09:00:25;;;;;;;5.00;1.48;;;;;;;17.00;54.05;101698.13;10449263;28;20299;-62
2024/02/27 09:05:26;;;;;;;3.40;1.35;;;;;;;16.94;54.20;101708.81;10448083;28;20472;-62
2024/02/27 09:10:26;;;;;;;3.70;1.40;;;;;;;16.97;52.81;101714.72;10448246;28;20079;-62
2024/02/27 09:15:26;;;;;;;6.03;1.27;;;;;;;16.88;55.00;101709.03;10449245;28;20627;-62
2024/02/27 09:20:30;;;;;;;6.07;1.60;;;;;;;16.85;52.71;101733.69;10448251;28;20295;-61
2024/02/27 09:25:31;;;;;;;3.92;1.20;;;;;;;16.84;53.90;101727.50;10434338;28;20267;-61
2024/02/27 09:30:31;;;;;;;3.20;1.40;;;;;;;16.79;54.38;101722.09;10453252;28;20078;-62
2024/02/27 09:35:31;;;;;;;3.25;1.50;;;;;;;16.79;54.00;101718.63;10456819;28;20055;-62
2024/02/27 09:40:32;;;;;;;3.07;1.10;;;;;;;16.91;52.67;101717.34;10456955;28;20025;-62
2024/02/27 09:45:32;;;;;;;3.53;1.13;;;;;;;16.82;54.15;101710.09;10455111;28;20731;-62
2024/02/27 09:50:33;;;;;;;2.40;1.08;;;;;;;16.83;54.53;101701.00;10456730;28;20271;-62
2024/02/27 09:55:33;;;;;;;2.25;1.02;;;;;;;16.80;53.94;101696.94;10455534;28;20075;-62
2024/02/27 10:00:34;;;;;;;3.60;1.00;;;;;;;16.84;54.44;101695.38;10454957;28;20091;-61
2024/02/27 10:05:36;;;;;;;1.95;1.15;;;;;;;16.92;54.22;101702.91;10455630;28;20283;-62
2024/02/27 10:10:38;;;;;;;4.28;1.25;;;;;;;16.93;55.33;101693.81;10454124;28;20094;-62
2024/02/27 10:15:39;;;;;;;3.30;0.90;;;;;;;16.91;54.13;101703.97;10453705;28;20115;-61
2024/02/27 10:20:43;;;;;;;3.80;1.03;;;;;;;16.91;54.00;101706.63;10455218;28;20377;-61
2024/02/27 10:25:44;;;;;;;2.60;1.20;;;;;;;16.87;53.90;101718.16;10453344;28;20700;-62
2024/02/27 10:30:44;;;;;;;1.75;0.93;;;;;;;16.83;54.05;101733.13;10454620;28;20032;-62
2024/02/27 10:35:46;;;;;;;2.78;1.30;;;;;;;16.80;54.18;101731.75;10454196;28;20116;-62
2024/02/27 10:40:47;;;;;;;1.92;0.80;;;;;;;16.79;54.26;101740.06;10430655;28;20035;-62
2024/02/27 10:45:48;;;;;;;1.83;0.93;;;;;;;16.80;54.44;101747.81;10449561;28;20453;-62
2024/02/27 10:50:48;;;;;;;3.03;1.50;;;;;;;16.78;54.47;101741.13;10452100;28;20029;-62
2024/02/27 10:55:50;;;;;;;6.03;2.03;;;;;;;16.73;54.32;101733.06;10451592;28;20020;-62
2024/02/27 11:00:50;;;;;;;4.25;1.48;;;;;;;16.75;55.30;101730.94;10453095;28;20279;-61
2024/02/27 11:05:51;;;;;;;2.28;1.00;;;;;;;16.75;54.18;101729.06;10450400;28;20445;-61
2024/02/27 11:10:51;;;;;;;3.22;1.13;;;;;;;16.78;55.32;101733.09;10452008;28;20408;-61
2024/02/27 11:15:52;;;;;;;2.60;1.17;;;;;;;16.83;54.22;101731.25;10450475;28;20028;-61
2024/02/27 11:20:53;;;;;;;2.97;1.15;;;;;;;16.86;55.56;101729.94;10450434;28;20388;-61
2024/02/27 11:25:53;;;;;;;2.97;1.10;;;;;;;17.06;54.47;101715.84;10449586;28;20059;-60
2024/02/27 11:30:54;;;;;;;2.92;1.50;;;;;;;17.15;55.56;101706.22;10433700;28;20025;-60
2024/02/27 11:35:54;;;;;;;2.47;1.35;;;;;;;17.22;54.59;101704.13;10432730;28;20447;-61
2024/02/27 11:40:54;;;;;;;1.63;1.00;;;;;;;17.26;55.90;101705.19;10451098;28;20377;-61
2024/02/27 11:45:58;;;;;;;2.90;1.35;;;;;;;17.27;54.61;101704.13;10450261;28;20286;-61
2024/02/27 11:50:59;;;;;;;2.58;1.27;;;;;;;17.27;54.94;101690.72;10450801;28;20392;-61
2024/02/27 11:56:00;;;;;;;2.83;1.60;;;;;;;17.20;55.19;101671.41;10450124;28;20033;-61
2024/02/27 12:01:00;;;;;;;2.10;1.27;;;;;;;17.23;56.26;101673.56;10450140;28;20502;-61
2024/02/27 12:06:03;;;;;;;2.88;1.70;;;;;;;17.23;54.95;101681.59;10449796;28;20029;-61
2024/02/27 12:11:06;;;;;;;1.90;1.10;;;;;;;17.24;55.63;101667.94;10448775;28;20408;-61
2024/02/27 12:16:08;;;;;;;3.67;2.00;;;;;;;17.23;55.22;101668.19;10449419;28;20028;-61
2024/02/27 12:21:09;;;;;;;2.40;1.10;;;;;;;17.27;55.86;101663.13;10448796;28;20017;-61
2024/02/27 12:26:09;;;;;;;2.10;1.15;;;;;;;17.29;55.40;101656.44;10449022;28;20431;-60
2024/02/27 12:31:10;;;;;;;3.07;1.50;;;;;;;17.29;55.66;101648.41;10442602;28;20013;-61
2024/02/27 12:36:10;;;;;;;2.22;1.17;;;;;;;17.29;55.85;101644.91;10447137;28;20280;-59
2024/02/27 12:41:11;;;;;;;2.60;1.43;;;;;;;17.31;54.63;101651.63;10449081;28;20414;-61
2024/02/27 12:46:13;;;;;;;2.22;1.27;;;;;;;17.30;55.97;101635.81;10448701;28;20282;-62
2024/02/27 12:51:15;;;;;;;1.90;0.98;;;;;;;17.35;55.22;101625.88;10447575;28;20021;-60
2024/02/27 12:56:16;;;;;;;2.25;1.40;;;;;;;17.36;55.62;101622.13;10447525;28;20053;-61
2024/02/27 13:01:16;;;;;;;2.70;1.50;;;;;;;17.34;54.54;101621.59;10447219;28;20040;-61
2024/02/27 13:06:17;;;;;;;2.70;1.43;;;;;;;17.37;55.37;101606.84;10454167;28;20354;-61
2024/02/27 13:11:19;;;;;;;2.53;1.10;;;;;;;17.36;54.66;101607.94;10455438;28;20287;-61
2024/02/27 13:16:22;;;;;;;2.20;1.02;;;;;;;17.34;56.26;101608.19;10437158;28;20033;-61
2024/02/27 13:21:22;;;;;;;3.83;1.80;;;;;;;17.45;54.82;101606.34;10441410;28;20032;-61
2024/02/27 13:26:22;;;;;;;3.60;1.27;;;;;;;17.43;55.34;101605.81;10452349;28;20031;-60
2024/02/27 13:31:24;;;;;;;8.73;2.20;;;;;;;17.46;55.30;101600.72;10455612;28;20275;-60
2024/02/27 13:36:24;;;;;;;3.70;1.55;;;;;;;17.47;55.68;101604.19;10452868;28;20315;-61
2024/02/27 13:41:25;;;;;;;3.10;1.50;;;;;;;17.46;55.22;101606.06;10454013;28;20471;-61
2024/02/27 13:46:25;;;;;;;3.08;1.63;;;;;;;17.50;55.52;101591.06;10452933;28;20409;-62
2024/02/27 13:51:26;;;;;;;3.33;1.70;;;;;;;17.54;55.79;101602.88;10453776;28;20028;-61
2024/02/27 13:56:26;;;;;;;4.68;1.75;;;;;;;17.53;55.77;101592.41;10453745;28;20380;-61
2024/02/27 14:01:27;;;;;;;2.37;1.13;;;;;;;17.57;55.91;101573.91;10454660;28;20070;-59
2024/02/27 14:06:27;;;;;;;2.20;1.25;;;;;;;17.62;54.72;101571.22;10453033;28;20337;-62
2024/02/27 14:11:27;;;;;;;3.43;1.80;;;;;;;17.63;55.55;101579.00;10452840;28;20491;-64
2024/02/27 14:16:28;;;;;;;5.50;2.70;;;;;;;17.63;54.61;101586.22;10436289;28;20294;-62
2024/02/27 14:21:28;;;;;;;5.53;2.72;;;;;;;17.59;54.34;101582.50;10454214;28;20033;-63
2024/02/27 14:26:29;;;;;;;3.92;2.50;;;;;;;17.63;54.53;101594.28;10451750;28;20031;-62
2024/02/27 14:31:32;;;;;;;7.53;2.60;;;;;;;17.59;54.92;101587.84;10453254;28;20024;-62
2024/02/27 14:36:33;;;;;;;3.65;2.13;;;;;;;17.54;54.51;101586.78;10450011;28;20017;-61
2024/02/27 14:41:34;;;;;;;5.72;2.60;;;;;;;17.48;56.21;101601.25;10451653;28;20043;-61
2024/02/27 14:46:34;;;;;;;3.70;2.17;;;;;;;17.46;55.05;101599.91;10452748;28;20096;-62
2024/02/27 14:51:38;;;;;;;3.45;2.38;;;;;;;17.45;54.78;101607.16;10452418;28;20503;-62
2024/02/27 14:56:39;;;;;;;6.35;2.00;;;;;;;17.42;55.24;101604.19;10450649;28;20024;-61
2024/02/27 15:01:39;;;;;;;11.90;2.58;;;;;;;17.36;55.12;101603.38;10452462;28;20531;-63
2024/02/27 15:06:44;;;;;;;14.02;3.05;;;;;;;17.40;54.98;101593.72;10450431;28;20017;-62
2024/02/27 15:11:44;;;;;;;10.38;2.42;;;;;;;17.33;56.02;101600.41;10449934;28;20079;-60
2024/02/27 15:16:44;;;;;;;9.37;2.77;;;;;;;17.35;56.34;101603.63;10449597;28;20029;-62
2024/02/27 15:21:46;;;;;;;10.23;2.97;;;;;;;17.33;55.43;101603.09;10450988;28;20291;-61
2024/02/27 15:26:46;;;;;;;9.15;2.92;;;;;;;17.30;55.25;101612.50;10450134;28;20267;-61
2024/02/27 15:31:47;;;;;;;11.02;2.97;;;;;;;17.28;57.11;101611.91;10450871;28;20021;-61
2024/02/27 15:36:47;;;;;;;12.93;2.83;;;;;;;17.23;56.94;101606.56;10450320;28;20032;-61
2024/02/27 15:41:48;;;;;;;8.18;2.67;;;;;;;17.21;56.03;101606.03;10450184;28;20341;-61
2024/02/27 15:46:48;;;;;;;8.75;2.78;;;;;;;17.15;57.27;101604.38;10449687;28;20072;-61
2024/02/27 15:51:51;;;;;;;8.43;2.60;;;;;;;17.14;57.43;101606.25;10448738;28;20028;-61
2024/02/27 15:56:51;;;;;;;6.93;2.75;;;;;;;17.07;56.10;101602.25;10432823;28;20281;-62
2024/02/27 16:01:52;;;;;;;6.95;2.58;;;;;;;17.03;56.15;101604.63;10448768;28;20024;-61
2024/02/27 16:06:58;;;;;;;10.77;2.70;;;;;;;16.99;56.99;101608.91;10450504;28;20032;-61
2024/02/27 16:11:58;;;;;;;8.52;3.70;;;;;;;16.97;56.82;101607.56;10449693;28;20302;-61
2024/02/27 16:16:59;;;;;;;7.65;3.17;;;;;;;16.93;56.14;101607.28;10449885;28;20048;-61
2024/02/27 16:22:03;;;;;;;9.00;2.78;;;;;;;16.88;56.01;101602.69;10447919;28;20064;-61
2024/02/27 16:27:05;;;;;;;5.22;2.05;;;;;;;16.86;56.90;101609.41;10448642;28;20027;-62
2024/02/27 16:32:05;;;;;;;6.88;2.53;;;;;;;16.82;57.12;101614.47;10448878;28;20860;-61
2024/02/27 16:37:06;;;;;;;3.63;2.20;;;;;;;16.83;57.58;101629.47;10443024;28;20206;-62
2024/02/27 16:42:09;;;;;;;7.28;2.83;;;;;;;16.95;55.93;101624.69;10442180;28;20108;-60
2024/02/27 16:47:09;;;;;;;6.95;2.70;;;;;;;17.05;57.53;101625.78;10439402;28;20389;-62
2024/02/27 16:52:10;;;;;;;5.50;2.80;;;;;;;17.19;58.67;101632.28;10447963;28;20032;-61
2024/02/27 16:57:10;;;;;;;5.55;3.30;;;;;;;17.24;59.13;101634.97;10448759;28;20271;-61
2024/02/27 17:02:10;;;;;;;6.22;3.10;;;;;;;17.30;59.30;101628.56;10446252;28;20039;-62
2024/02/27 17:07:11;;;;;;;7.83;3.33;;;;;;;17.33;58.60;101643.31;10447560;28;20029;-60
2024/02/27 17:12:11;;;;;;;8.33;3.73;;;;;;;17.36;59.27;101643.59;10448214;28;20792;-60
2024/02/27 17:17:13;;;;;;;9.27;4.60;;;;;;;17.40;59.73;101638.50;10446316;28;20287;-61
2024/02/27 17:22:13;;;;;;;9.55;5.10;;;;;;;17.38;58.81;101636.06;10447203;28;20275;-61
2024/02/27 17:27:14;;;;;;;13.18;5.28;;;;;;;17.37;61.58;101636.34;10448197;28;20028;-61
2024/02/27 17:32:15;;;;;;;9.68;4.78;;;;;;;17.35;60.52;101636.59;10448924;28;20541;-61
2024/02/27 17:37:15;;;;;;;21.55;5.72;;;;;;;17.36;60.08;101646.25;10449121;28;20032;-60
2024/02/27 17:42:15;;;;;;;10.57;4.75;;;;;;;17.36;60.23;101664.22;10430974;28;20078;-62
2024/02/27 17:47:16;;;;;;;13.17;4.87;;;;;;;17.34;59.89;101669.84;10449150;28;20025;-62
2024/02/27 17:52:17;;;;;;;9.10;4.40;;;;;;;17.36;60.18;101681.13;10452412;28;20287;-61
2024/02/27 17:57:17;;;;;;;9.53;4.90;;;;;;;17.31;59.41;101675.75;10456478;28;20514;-63
2024/02/27 18:02:17;;;;;;;14.43;5.65;;;;;;;17.32;59.95;101679.22;10454312;28;20279;-62
2024/02/27 18:07:18;;;;;;;15.95;4.95;;;;;;;17.16;59.90;101689.06;10451491;28;20024;-60
2024/02/27 18:12:18;;;;;;;22.73;6.05;;;;;;;17.11;60.72;101689.06;10453093;28;20083;-60
2024/02/27 18:17:18;;;;;;;31.20;6.43;;;;;;;17.02;60.04;101702.16;10454937;28;20086;-61
2024/02/27 18:22:19;;;;;;;16.27;4.77;;;;;;;17.04;58.76;101701.88;10453717;28;20290;-60
2024/02/27 18:27:21;;;;;;;11.87;3.93;;;;;;;17.03;59.47;101703.75;10453876;28;20286;-60
2024/02/27 18:32:21;;;;;;;10.95;4.68;;;;;;;16.95;59.60;101729.19;10454544;28;20283;-60
2024/02/27 18:37:24;;;;;;;16.73;5.00;;;;;;;16.90;59.83;101723.78;10453438;28;20452;-61
2024/02/27 18:42:24;;;;;;;10.50;3.90;;;;;;;16.88;59.61;101731.28;10452376;28;20619;-61
2024/02/27 18:47:24;;;;;;;8.23;4.10;;;;;;;16.87;60.15;101731.53;10451773;28;20033;-60
2024/02/27 18:52:25;;;;;;;8.33;4.27;;;;;;;16.84;58.31;101721.34;10449833;28;20766;-60
2024/02/27 18:57:25;;;;;;;9.73;4.87;;;;;;;16.92;58.94;101724.31;10453986;28;20289;-60
2024/02/27 19:02:25;;;;;;;10.33;4.60;;;;;;;16.98;58.25;101733.22;10452524;28;20287;-59
2024/02/27 19:07:29;;;;;;;7.33;3.53;;;;;;;16.99;57.12;101742.06;10451533;28;20623;-59
2024/02/27 19:12:30;;;;;;;10.38;4.38;;;;;;;17.05;57.69;101749.03;10446877;28;20798;-60
2024/02/27 19:17:30;;;;;;;9.45;4.10;;;;;;;17.09;57.60;101753.63;10451723;28;20044;-62
2024/02/27 19:22:31;;;;;;;11.73;4.47;;;;;;;17.14;57.41;101764.38;10449131;28;20506;-62
2024/02/27 19:27:31;;;;;;;8.80;5.22;;;;;;;17.16;56.89;101780.19;10451427;28;20070;-62
2024/02/27 19:32:31;;;;;;;8.00;4.60;;;;;;;17.10;57.17;101782.06;10450069;28;20020;-61
2024/02/27 19:37:31;;;;;;;7.07;4.40;;;;;;;17.14;55.92;101777.78;10451380;28;20302;-60
2024/02/27 19:42:32;;;;;;;6.70;4.20;;;;;;;17.14;56.06;101780.44;10449717;28;20796;-61
2024/02/27 19:47:32;;;;;;;9.25;3.50;;;;;;;17.19;56.46;101777.00;10450168;28;20336;-60
2024/02/27 19:52:38;;;;;;;18.60;4.07;;;;;;;17.17;56.15;101763.88;10449126;28;20040;-60
2024/02/27 19:57:38;;;;;;;9.13;4.38;;;;;;;17.12;56.24;101755.78;10450826;28;20337;-61
2024/02/27 20:02:39;;;;;;;8.07;4.30;;;;;;;17.19;55.80;101764.41;10450363;28;20100;-60
2024/02/27 20:07:40;;;;;;;6.57;4.13;;;;;;;17.18;56.24;101756.66;10448440;28;20025;-61
2024/02/27 20:12:41;;;;;;;6.27;3.83;;;;;;;17.10;55.51;101749.09;10448395;28;20049;-60
2024/02/27 20:17:41;;;;;;;6.28;3.72;;;;;;;17.11;57.18;101764.91;10448872;28;20837;-61
2024/02/27 20:22:42;;;;;;;7.10;3.87;;;;;;;17.06;57.38;101772.91;10449464;28;20021;-61
2024/02/27 20:27:42;;;;;;;8.13;3.97;;;;;;;17.12;56.09;101774.56;10450447;28;20268;-60
2024/02/27 20:32:42;;;;;;;5.72;3.47;;;;;;;17.12;56.77;101795.19;10448004;28;20275;-62
2024/02/27 20:37:43;;;;;;;6.83;3.50;;;;;;;17.09;56.89;101790.34;10448923;28;20461;-60
2024/02/27 20:42:43;;;;;;;7.30;4.03;;;;;;;17.14;55.65;101795.72;10446580;28;20287;-60
2024/02/27 20:47:43;;;;;;;6.53;3.58;;;;;;;17.13;55.07;101789.56;10448862;28;20033;-60
2024/02/27 20:52:44;;;;;;;10.40;3.90;;;;;;;17.19;55.33;101785.84;10448941;28;20071;-59
2024/02/27 20:57:45;;;;;;;5.93;3.93;;;;;;;17.16;55.26;101783.69;10448722;28;20017;-60
2024/02/27 21:02:45;;;;;;;6.43;3.88;;;;;;;17.19;55.46;101790.41;10445995;28;20290;-60
2024/02/27 21:07:46;;;;;;;7.30;3.38;;;;;;;17.21;54.81;101790.97;10449062;28;20025;-60
2024/02/27 21:12:46;;;;;;;8.03;3.97;;;;;;;17.19;54.73;101798.44;10448096;28;20045;-59
2024/02/27 21:17:46;;;;;;;6.00;2.97;;;;;;;17.21;55.11;101805.16;10448775;28;20287;-60
2024/02/27 21:22:47;;;;;;;7.38;3.80;;;;;;;17.25;55.25;101810.81;10449010;28;20271;-60
2024/02/27 21:27:52;;;;;;;7.07;3.90;;;;;;;17.21;54.97;101818.56;10455571;28;20074;-59
2024/02/27 21:32:52;;;;;;;7.03;4.32;;;;;;;17.24;55.04;101818.03;10456561;28;20748;-60
2024/02/27 21:37:53;;;;;;;6.93;3.70;;;;;;;17.23;54.34;101827.16;10457256;28;20096;-60
2024/02/27 21:42:53;;;;;;;6.25;4.00;;;;;;;17.24;54.27;101838.66;10456493;28;20777;-60
2024/02/27 21:47:55;;;;;;;7.70;3.40;;;;;;;17.27;54.38;101835.47;10455533;28;20028;-60
2024/02/27 21:52:55;;;;;;;6.00;3.58;;;;;;;17.26;54.12;101836.53;10454927;28;20287;-59
2024/02/27 21:57:55;;;;;;;7.03;4.28;;;;;;;17.26;54.52;101833.84;10456362;28;20025;-61
2024/02/27 22:02:56;;;;;;;7.50;4.22;;;;;;;17.30;55.07;101842.22;10454689;28;20497;-59
2024/02/27 22:07:56;;;;;;;5.68;3.25;;;;;;;17.29;54.07;101836.03;10454806;28;20017;-60
2024/02/27 22:12:57;;;;;;;4.78;2.70;;;;;;;17.27;54.29;101827.44;10455269;28;20435;-59
2024/02/27 22:17:59;;;;;;;5.43;3.35;;;;;;;17.24;53.75;101839.47;10456229;28;20388;-60
2024/02/27 22:22:59;;;;;;;5.15;3.47;;;;;;;17.28;54.52;101825.56;10454081;28;20091;-60
2024/02/27 22:28:00;;;;;;;5.90;3.10;;;;;;;17.28;53.42;101823.69;10455358;28;20037;-59
2024/02/27 22:33:00;;;;;;;6.40;4.23;;;;;;;17.29;54.11;101813.78;10454832;28;20310;-60
2024/02/27 22:38:06;;;;;;;4.53;3.07;;;;;;;17.29;54.07;101819.16;10453756;28;20299;-60
2024/02/27 22:43:06;;;;;;;6.10;4.30;;;;;;;17.27;54.59;101823.94;10454546;28;20277;-59
2024/02/27 22:48:07;;;;;;;5.33;3.40;;;;;;;17.26;53.61;101825.81;10450720;28;20031;-60
2024/02/27 22:53:10;;;;;;;6.07;3.83;;;;;;;17.27;54.33;101814.03;10453772;28;20305;-60
2024/02/27 22:58:11;;;;;;;5.30;3.83;;;;;;;17.30;53.90;101815.41;10451300;28;20178;-59
2024/02/27 23:03:12;;;;;;;5.97;4.07;;;;;;;17.28;53.49;101821.00;10448785;28;20064;-60